Portage Co  -  Hydrologic Outlook Hydrologic Outlook        Wood Co  -  Hydrologic Outlook Hydrologic Outlook        Marathon Co  -  Hydrologic Outlook Hydrologic Outlook        Waupaca Co  -  River Flood Warning River Flood Warning     Hydrologic Outlook Hydrologic Outlook      


Plover Skycam (click)  Plover Skycam (click)


Rain radar more information rain snow radar



Weather Underground History page Text

Daily Summary for April 22, 2018 Units:  English    Metric   Both
« Previous Day
Next Day »
Daily Weekly Monthly Yearly Custom
  Current: High: Low: Average:
Temperature: 27.5 °F TemperatureF °F 27.0 °F 29.5 °F
Dew Point: 23.9 °F DewpointF °F 22.5 °F 23.9 °F
Humidity: 86 % Humidity % 74 % 78 %
Wind Speed: 0.0 mph WindSpeedMPH mph 0.0 mph 0 mph
Wind Gust: 0.0 mph WindSpeedGustMPH mph - -
Wind:Calm - - North
Pressure: 30.36 in PressureIn in 30.36 in -
Precipitation: 0.00 in      
Historical Graphs
 
 
Tabular Data for April 22, 2018
Time Temperature Dew Point Pressure Wind Wind Speed Wind Gust Humidity Rainfall Rate (Hourly)
TemperatureF °F DewpointF °F PressureIn in Calm     Humidity % HourlyPrecipIn in
00:02 34.3 °F 26.9 °F 30.38 in Calm     74 % 0.00 in
00:03 34.2 °F 26.7 °F 30.38 in Calm     74 % 0.00 in
00:08 33.8 °F 26.4 °F 30.38 in Calm     74 % 0.00 in
00:13 34.0 °F 26.6 °F 30.38 in Calm     74 % 0.00 in
00:18 34.0 °F 26.6 °F 30.38 in Calm     74 % 0.00 in
00:23 33.6 °F 26.2 °F 30.38 in Calm     74 % 0.00 in
00:28 33.6 °F 26.2 °F 30.38 in Calm     74 % 0.00 in
00:33 33.1 °F 25.7 °F 30.38 in Calm     74 % 0.00 in
00:38 32.4 °F 25.0 °F 30.38 in Calm     74 % 0.00 in
00:43 32.5 °F 25.2 °F 30.38 in Calm     74 % 0.00 in
00:48 32.7 °F 25.3 °F 30.38 in Calm     74 % 0.00 in
00:53 32.7 °F 25.3 °F 30.38 in Calm     74 % 0.00 in
00:58 32.5 °F 25.2 °F 30.38 in Calm     74 % 0.00 in
01:03 32.4 °F 25.0 °F 30.37 in Calm     74 % 0.00 in
01:08 32.5 °F 25.2 °F 30.37 in Calm     74 % 0.00 in
01:13 31.8 °F 24.5 °F 30.37 in Calm     74 % 0.00 in
01:18 31.6 °F 24.3 °F 30.37 in Calm     74 % 0.00 in
01:23 31.5 °F 24.1 °F 30.37 in Calm     74 % 0.00 in
01:28 31.3 °F 24.0 °F 30.37 in Calm     74 % 0.00 in
01:33 31.3 °F 24.0 °F 30.37 in Calm     74 % 0.00 in
01:38 31.3 °F 24.0 °F 30.37 in Calm     74 % 0.00 in
01:43 31.3 °F 24.0 °F 30.37 in Calm     74 % 0.00 in
01:48 31.5 °F 24.1 °F 30.37 in Calm     74 % 0.00 in
01:53 31.3 °F 24.0 °F 30.37 in Calm     74 % 0.00 in
01:58 30.0 °F 22.7 °F 30.37 in Calm     74 % 0.00 in
02:03 29.7 °F 23.3 °F 30.36 in Calm     77 % 0.00 in
02:08 30.2 °F 23.9 °F 30.36 in Calm     77 % 0.00 in
02:13 30.2 °F 23.9 °F 30.36 in Calm     77 % 0.00 in
02:18 30.2 °F 23.9 °F 30.36 in Calm     77 % 0.00 in
02:23 30.0 °F 23.7 °F 30.36 in Calm     77 % 0.00 in
02:28 29.8 °F 23.5 °F 30.36 in Calm     77 % 0.00 in
02:33 29.8 °F 23.5 °F 30.36 in Calm     77 % 0.00 in
02:38 29.3 °F 23.0 °F 30.36 in Calm     77 % 0.00 in
02:43 29.3 °F 23.0 °F 30.36 in Calm     77 % 0.00 in
02:48 29.3 °F 23.0 °F 30.36 in Calm     77 % 0.00 in
02:53 28.8 °F 22.5 °F 30.36 in Calm     77 % 0.00 in
02:58 28.8 °F 22.5 °F 30.36 in Calm     77 % 0.00 in
03:03 28.8 °F 24.0 °F 30.36 in Calm     82 % 0.00 in
03:08 28.8 °F 24.0 °F 30.36 in Calm     82 % 0.00 in
03:13 28.2 °F 23.4 °F 30.36 in Calm     82 % 0.00 in
03:18 28.4 °F 23.6 °F 30.36 in Calm     82 % 0.00 in
03:23 28.8 °F 24.0 °F 30.36 in Calm     82 % 0.00 in
03:28 28.4 °F 23.6 °F 30.36 in Calm     82 % 0.00 in
03:33 28.4 °F 23.6 °F 30.36 in Calm     82 % 0.00 in
03:38 28.6 °F 23.8 °F 30.36 in Calm     82 % 0.00 in
03:43 28.6 °F 23.8 °F 30.36 in Calm     82 % 0.00 in
03:48 28.6 °F 23.8 °F 30.36 in Calm     82 % 0.00 in
03:53 27.9 °F 23.1 °F 30.36 in Calm     82 % 0.00 in
03:58 27.9 °F 23.1 °F 30.36 in Calm     82 % 0.00 in
04:03 28.2 °F 24.6 °F 30.36 in Calm     86 % 0.00 in
04:08 28.6 °F 24.9 °F 30.36 in Calm     86 % 0.00 in
04:13 28.6 °F 24.9 °F 30.36 in Calm     86 % 0.00 in
04:18 28.9 °F 25.3 °F 30.36 in Calm     86 % 0.00 in
04:23 28.8 °F 25.1 °F 30.36 in Calm     86 % 0.00 in
04:28 28.0 °F 24.4 °F 30.36 in Calm     86 % 0.00 in
04:33 27.1 °F 23.5 °F 30.36 in Calm     86 % 0.00 in
04:38 27.7 °F 24.0 °F 30.36 in Calm     86 % 0.00 in
04:43 27.5 °F 23.9 °F 30.36 in Calm     86 % 0.00 in
04:48 27.1 °F 23.5 °F 30.36 in Calm     86 % 0.00 in
04:53 27.0 °F 23.3 °F 30.36 in Calm     86 % 0.00 in
04:58 27.0 °F 23.3 °F 30.36 in Calm     86 % 0.00 in
05:03 27.1 °F 23.5 °F 30.36 in Calm     86 % 0.00 in
05:08 27.3 °F 23.7 °F 30.36 in Calm     86 % 0.00 in
05:13 27.3 °F 23.7 °F 30.36 in Calm     86 % 0.00 in
05:18 27.1 °F 23.5 °F 30.36 in Calm     86 % 0.00 in
05:23 27.3 °F 23.7 °F 30.36 in Calm     86 % 0.00 in
05:28 27.5 °F 23.9 °F 30.36 in Calm     86 % 0.00 in
Live Plover Wisconsin Weather - Tim Bubla
Compliments of Weather Underground - 2.5 mb

Script developed by  Jim McMurry - jmcmurry@mwt.net Adapted for the template by  Wim van der Kuil - Leuven-Template.eu